<?xml version="1.0" encoding="UTF-8" standalone="no" ?>
<gpx xmlns="http://www.topografix.com/GPX/1/1" xmlns:xsi="http://www.w3.org/2001/XMLSchema-instance" xsi:schemaLocation="http://www.topografix.com/GPX/1/1 http://www.topografix.com/GPX/1/1/gpx.xsd" version="1.1" creator="VisuGPX - https://www.visugpx.com">
  <metadata>
    <name>Dent de Vaulion</name>
    <desc><![CDATA[Dent de Vaulion]]></desc>
  </metadata>
  <wpt lat="46.49111" lon="6.06537">
    <ele>1098</ele>
    <name><![CDATA[001]]></name>
    <desc><![CDATA[14-AOU-14 23:08:11]]></desc>
    <cmt><![CDATA[14-AOU-14 23:08:11]]></cmt>
  </wpt>
  <trk>
    <name><![CDATA[ACTIVE LOG 001]]></name>
    <trkseg>
      <trkpt lat="46.66598" lon="6.33634">
        <ele>1066.719971</ele>
        <time>2014-08-20T10:32:28Z</time>
      </trkpt>
      <trkpt lat="46.66606" lon="6.33632">
        <ele>1058.068359</ele>
        <time>2014-08-20T10:32:39Z</time>
      </trkpt>
      <trkpt lat="46.6662" lon="6.33638">
        <ele>1057.587646</ele>
        <time>2014-08-20T10:32:53Z</time>
      </trkpt>
      <trkpt lat="46.6663" lon="6.33644">
        <ele>1059.510254</ele>
        <time>2014-08-20T10:33:09Z</time>
      </trkpt>
      <trkpt lat="46.66633" lon="6.33643">
        <ele>1059.029541</ele>
        <time>2014-08-20T10:33:26Z</time>
      </trkpt>
      <trkpt lat="46.66638" lon="6.33644">
        <ele>1059.510254</ele>
        <time>2014-08-20T10:33:55Z</time>
      </trkpt>
      <trkpt lat="46.66648" lon="6.33655">
        <ele>1059.510254</ele>
        <time>2014-08-20T10:34:18Z</time>
      </trkpt>
      <trkpt lat="46.66652" lon="6.33655">
        <ele>1060.952148</ele>
        <time>2014-08-20T10:34:39Z</time>
      </trkpt>
      <trkpt lat="46.66658" lon="6.33657">
        <ele>1060.471436</ele>
        <time>2014-08-20T10:34:54Z</time>
      </trkpt>
      <trkpt lat="46.66658" lon="6.33662">
        <ele>1060.471436</ele>
        <time>2014-08-20T10:35:02Z</time>
      </trkpt>
      <trkpt lat="46.66657" lon="6.33684">
        <ele>1062.874756</ele>
        <time>2014-08-20T10:35:16Z</time>
      </trkpt>
      <trkpt lat="46.66656" lon="6.33686">
        <ele>1063.835938</ele>
        <time>2014-08-20T10:35:18Z</time>
      </trkpt>
      <trkpt lat="46.66657" lon="6.33689">
        <ele>1063.835938</ele>
        <time>2014-08-20T10:35:20Z</time>
      </trkpt>
      <trkpt lat="46.66657" lon="6.33713">
        <ele>1068.642822</ele>
        <time>2014-08-20T10:35:34Z</time>
      </trkpt>
      <trkpt lat="46.66659" lon="6.33687">
        <ele>1068.642822</ele>
        <time>2014-08-20T10:36:25Z</time>
      </trkpt>
      <trkpt lat="46.6666" lon="6.33689">
        <ele>1068.162109</ele>
        <time>2014-08-20T10:36:43Z</time>
      </trkpt>
      <trkpt lat="46.66659" lon="6.33703">
        <ele>1065.278076</ele>
        <time>2014-08-20T10:36:53Z</time>
      </trkpt>
      <trkpt lat="46.66654" lon="6.3373">
        <ele>1067.200684</ele>
        <time>2014-08-20T10:38:14Z</time>
      </trkpt>
      <trkpt lat="46.66652" lon="6.33734">
        <ele>1067.681152</ele>
        <time>2014-08-20T10:38:16Z</time>
      </trkpt>
      <trkpt lat="46.6665" lon="6.33756">
        <ele>1068.642822</ele>
        <time>2014-08-20T10:38:28Z</time>
      </trkpt>
      <trkpt lat="46.66653" lon="6.33774">
        <ele>1067.200684</ele>
        <time>2014-08-20T10:38:41Z</time>
      </trkpt>
      <trkpt lat="46.66652" lon="6.33796">
        <ele>1067.681152</ele>
        <time>2014-08-20T10:38:53Z</time>
      </trkpt>
      <trkpt lat="46.66652" lon="6.33814">
        <ele>1066.719971</ele>
        <time>2014-08-20T10:39:04Z</time>
      </trkpt>
      <trkpt lat="46.66655" lon="6.33833">
        <ele>1067.200684</ele>
        <time>2014-08-20T10:39:16Z</time>
      </trkpt>
      <trkpt lat="46.66655" lon="6.3384">
        <ele>1065.758789</ele>
        <time>2014-08-20T10:39:23Z</time>
      </trkpt>
      <trkpt lat="46.66654" lon="6.33849">
        <ele>1064.797363</ele>
        <time>2014-08-20T10:39:29Z</time>
      </trkpt>
      <trkpt lat="46.66648" lon="6.33865">
        <ele>1066.719971</ele>
        <time>2014-08-20T10:39:42Z</time>
      </trkpt>
      <trkpt lat="46.66642" lon="6.33879">
        <ele>1069.604248</ele>
        <time>2014-08-20T10:39:54Z</time>
      </trkpt>
      <trkpt lat="46.66635" lon="6.33898">
        <ele>1072.96875</ele>
        <time>2014-08-20T10:40:23Z</time>
      </trkpt>
      <trkpt lat="46.66638" lon="6.3391">
        <ele>1074.891357</ele>
        <time>2014-08-20T10:40:35Z</time>
      </trkpt>
      <trkpt lat="46.66642" lon="6.33924">
        <ele>1077.294678</ele>
        <time>2014-08-20T10:40:54Z</time>
      </trkpt>
      <trkpt lat="46.66643" lon="6.33937">
        <ele>1078.255859</ele>
        <time>2014-08-20T10:41:17Z</time>
      </trkpt>
      <trkpt lat="46.6665" lon="6.33956">
        <ele>1098.443359</ele>
        <time>2014-08-20T10:44:42Z</time>
      </trkpt>
      <trkpt lat="46.66657" lon="6.33952">
        <ele>1099.404785</ele>
        <time>2014-08-20T10:46:32Z</time>
      </trkpt>
      <trkpt lat="46.66661" lon="6.33966">
        <ele>1098.443359</ele>
        <time>2014-08-20T10:46:40Z</time>
      </trkpt>
      <trkpt lat="46.66667" lon="6.33985">
        <ele>1096.040283</ele>
        <time>2014-08-20T10:46:55Z</time>
      </trkpt>
      <trkpt lat="46.66672" lon="6.34002">
        <ele>1095.078857</ele>
        <time>2014-08-20T10:47:08Z</time>
      </trkpt>
      <trkpt lat="46.66674" lon="6.34013">
        <ele>1095.078857</ele>
        <time>2014-08-20T10:47:14Z</time>
      </trkpt>
      <trkpt lat="46.66676" lon="6.34031">
        <ele>1095.078857</ele>
        <time>2014-08-20T10:47:28Z</time>
      </trkpt>
      <trkpt lat="46.66679" lon="6.34056">
        <ele>1095.55957</ele>
        <time>2014-08-20T10:47:47Z</time>
      </trkpt>
      <trkpt lat="46.66681" lon="6.34059">
        <ele>1097.482178</ele>
        <time>2014-08-20T10:48:01Z</time>
      </trkpt>
      <trkpt lat="46.66683" lon="6.34065">
        <ele>1098.443359</ele>
        <time>2014-08-20T10:48:08Z</time>
      </trkpt>
      <trkpt lat="46.66698" lon="6.34095">
        <ele>1101.327637</ele>
        <time>2014-08-20T10:48:36Z</time>
      </trkpt>
      <trkpt lat="46.66721" lon="6.34126">
        <ele>1107.576172</ele>
        <time>2014-08-20T10:49:06Z</time>
      </trkpt>
      <trkpt lat="46.66721" lon="6.34132">
        <ele>1108.056885</ele>
        <time>2014-08-20T10:49:10Z</time>
      </trkpt>
      <trkpt lat="46.66715" lon="6.34177">
        <ele>1111.9021</ele>
        <time>2014-08-20T10:49:35Z</time>
      </trkpt>
      <trkpt lat="46.66714" lon="6.34216">
        <ele>1113.343994</ele>
        <time>2014-08-20T10:49:54Z</time>
      </trkpt>
      <trkpt lat="46.66716" lon="6.34224">
        <ele>1113.824463</ele>
        <time>2014-08-20T10:50:04Z</time>
      </trkpt>
      <trkpt lat="46.66723" lon="6.34223">
        <ele>1116.228027</ele>
        <time>2014-08-20T10:50:19Z</time>
      </trkpt>
      <trkpt lat="46.6672" lon="6.3423">
        <ele>1119.112061</ele>
        <time>2014-08-20T10:50:30Z</time>
      </trkpt>
      <trkpt lat="46.66711" lon="6.34228">
        <ele>1118.631348</ele>
        <time>2014-08-20T10:50:33Z</time>
      </trkpt>
      <trkpt lat="46.66692" lon="6.34247">
        <ele>1126.321777</ele>
        <time>2014-08-20T10:50:54Z</time>
      </trkpt>
      <trkpt lat="46.66682" lon="6.34268">
        <ele>1130.647705</ele>
        <time>2014-08-20T10:51:08Z</time>
      </trkpt>
      <trkpt lat="46.66674" lon="6.34294">
        <ele>1136.415771</ele>
        <time>2014-08-20T10:51:27Z</time>
      </trkpt>
      <trkpt lat="46.66678" lon="6.34316">
        <ele>1141.702881</ele>
        <time>2014-08-20T10:51:45Z</time>
      </trkpt>
      <trkpt lat="46.6669" lon="6.34347">
        <ele>1148.432129</ele>
        <time>2014-08-20T10:52:11Z</time>
      </trkpt>
      <trkpt lat="46.66784" lon="6.34372">
        <ele>1166.216553</ele>
        <time>2014-08-20T10:53:57Z</time>
      </trkpt>
      <trkpt lat="46.66824" lon="6.34371">
        <ele>1157.083984</ele>
        <time>2014-08-20T10:54:46Z</time>
      </trkpt>
      <trkpt lat="46.66841" lon="6.34378">
        <ele>1153.23877</ele>
        <time>2014-08-20T10:55:04Z</time>
      </trkpt>
      <trkpt lat="46.66858" lon="6.34387">
        <ele>1148.912842</ele>
        <time>2014-08-20T10:55:19Z</time>
      </trkpt>
      <trkpt lat="46.66899" lon="6.34389">
        <ele>1138.819092</ele>
        <time>2014-08-20T10:55:52Z</time>
      </trkpt>
      <trkpt lat="46.67005" lon="6.34381">
        <ele>1230.144287</ele>
        <time>2014-08-20T10:58:35Z</time>
      </trkpt>
      <trkpt lat="46.67096" lon="6.34381">
        <ele>1219.569824</ele>
        <time>2014-08-20T11:00:28Z</time>
      </trkpt>
      <trkpt lat="46.67251" lon="6.34344">
        <ele>1180.155762</ele>
        <time>2014-08-20T11:03:03Z</time>
      </trkpt>
      <trkpt lat="46.67294" lon="6.34319">
        <ele>1159.967773</ele>
        <time>2014-08-20T11:04:00Z</time>
      </trkpt>
      <trkpt lat="46.67305" lon="6.34315">
        <ele>1159.006592</ele>
        <time>2014-08-20T11:04:09Z</time>
      </trkpt>
      <trkpt lat="46.67311" lon="6.34309">
        <ele>1156.122559</ele>
        <time>2014-08-20T11:04:33Z</time>
      </trkpt>
      <trkpt lat="46.67421" lon="6.34345">
        <ele>1220.050293</ele>
        <time>2014-08-20T11:51:52Z</time>
      </trkpt>
      <trkpt lat="46.6744" lon="6.34372">
        <ele>1218.127686</ele>
        <time>2014-08-20T11:52:42Z</time>
      </trkpt>
      <trkpt lat="46.67419" lon="6.34537">
        <ele>1250.8125</ele>
        <time>2014-08-20T11:57:30Z</time>
      </trkpt>
      <trkpt lat="46.67396" lon="6.34559">
        <ele>1255.138428</ele>
        <time>2014-08-20T11:58:01Z</time>
      </trkpt>
      <trkpt lat="46.67445" lon="6.34594">
        <ele>1264.270996</ele>
        <time>2014-08-20T11:58:56Z</time>
      </trkpt>
      <trkpt lat="46.67472" lon="6.34589">
        <ele>1272.922852</ele>
        <time>2014-08-20T11:59:32Z</time>
      </trkpt>
      <trkpt lat="46.67546" lon="6.34576">
        <ele>1287.342529</ele>
        <time>2014-08-20T12:01:11Z</time>
      </trkpt>
      <trkpt lat="46.67556" lon="6.34566">
        <ele>1290.707031</ele>
        <time>2014-08-20T12:01:27Z</time>
      </trkpt>
      <trkpt lat="46.67558" lon="6.34566">
        <ele>1291.668457</ele>
        <time>2014-08-20T12:01:29Z</time>
      </trkpt>
      <trkpt lat="46.6758" lon="6.34554">
        <ele>1299.839844</ele>
        <time>2014-08-20T12:01:51Z</time>
      </trkpt>
      <trkpt lat="46.67605" lon="6.34552">
        <ele>1308.972412</ele>
        <time>2014-08-20T12:02:14Z</time>
      </trkpt>
      <trkpt lat="46.67619" lon="6.34551">
        <ele>1313.29834</ele>
        <time>2014-08-20T12:02:30Z</time>
      </trkpt>
      <trkpt lat="46.67627" lon="6.3453">
        <ele>1316.662842</ele>
        <time>2014-08-20T12:02:53Z</time>
      </trkpt>
      <trkpt lat="46.67656" lon="6.34537">
        <ele>1320.98877</ele>
        <time>2014-08-20T12:03:23Z</time>
      </trkpt>
      <trkpt lat="46.67594" lon="6.34675">
        <ele>1328.19873</ele>
        <time>2014-08-20T12:05:55Z</time>
      </trkpt>
      <trkpt lat="46.67585" lon="6.34679">
        <ele>1317.624023</ele>
        <time>2014-08-20T12:16:14Z</time>
      </trkpt>
      <trkpt lat="46.67581" lon="6.34688">
        <ele>1317.624023</ele>
        <time>2014-08-20T12:16:20Z</time>
      </trkpt>
      <trkpt lat="46.67578" lon="6.34692">
        <ele>1317.624023</ele>
        <time>2014-08-20T12:16:23Z</time>
      </trkpt>
      <trkpt lat="46.67567" lon="6.34712">
        <ele>1319.546875</ele>
        <time>2014-08-20T12:16:40Z</time>
      </trkpt>
      <trkpt lat="46.67563" lon="6.34718">
        <ele>1320.027344</ele>
        <time>2014-08-20T12:16:45Z</time>
      </trkpt>
      <trkpt lat="46.67558" lon="6.34722">
        <ele>1320.508057</ele>
        <time>2014-08-20T12:16:50Z</time>
      </trkpt>
      <trkpt lat="46.67542" lon="6.34732">
        <ele>1320.508057</ele>
        <time>2014-08-20T12:17:07Z</time>
      </trkpt>
      <trkpt lat="46.67527" lon="6.34746">
        <ele>1324.353516</ele>
        <time>2014-08-20T12:18:27Z</time>
      </trkpt>
      <trkpt lat="46.6751" lon="6.34763">
        <ele>1326.276123</ele>
        <time>2014-08-20T12:19:16Z</time>
      </trkpt>
      <trkpt lat="46.67498" lon="6.34775">
        <ele>1325.79541</ele>
        <time>2014-08-20T12:19:33Z</time>
      </trkpt>
      <trkpt lat="46.67489" lon="6.34788">
        <ele>1327.237549</ele>
        <time>2014-08-20T12:19:46Z</time>
      </trkpt>
      <trkpt lat="46.67488" lon="6.34794">
        <ele>1326.756836</ele>
        <time>2014-08-20T12:19:50Z</time>
      </trkpt>
      <trkpt lat="46.67489" lon="6.34802">
        <ele>1327.237549</ele>
        <time>2014-08-20T12:19:55Z</time>
      </trkpt>
      <trkpt lat="46.67499" lon="6.34815">
        <ele>1329.159912</ele>
        <time>2014-08-20T12:20:06Z</time>
      </trkpt>
      <trkpt lat="46.67509" lon="6.34825">
        <ele>1331.563232</ele>
        <time>2014-08-20T12:20:18Z</time>
      </trkpt>
      <trkpt lat="46.67511" lon="6.34825">
        <ele>1332.524658</ele>
        <time>2014-08-20T12:21:21Z</time>
      </trkpt>
      <trkpt lat="46.6753" lon="6.34818">
        <ele>1330.121338</ele>
        <time>2014-08-20T12:21:35Z</time>
      </trkpt>
      <trkpt lat="46.67536" lon="6.34816">
        <ele>1329.159912</ele>
        <time>2014-08-20T12:21:40Z</time>
      </trkpt>
      <trkpt lat="46.67552" lon="6.34809">
        <ele>1328.19873</ele>
        <time>2014-08-20T12:21:53Z</time>
      </trkpt>
      <trkpt lat="46.6757" lon="6.34801">
        <ele>1326.756836</ele>
        <time>2014-08-20T12:22:10Z</time>
      </trkpt>
      <trkpt lat="46.67591" lon="6.348">
        <ele>1327.237549</ele>
        <time>2014-08-20T12:22:24Z</time>
      </trkpt>
      <trkpt lat="46.67611" lon="6.34796">
        <ele>1328.679443</ele>
        <time>2014-08-20T12:22:41Z</time>
      </trkpt>
      <trkpt lat="46.67613" lon="6.34795">
        <ele>1328.19873</ele>
        <time>2014-08-20T12:22:44Z</time>
      </trkpt>
      <trkpt lat="46.67616" lon="6.34792">
        <ele>1328.19873</ele>
        <time>2014-08-20T12:22:47Z</time>
      </trkpt>
      <trkpt lat="46.67625" lon="6.3479">
        <ele>1328.19873</ele>
        <time>2014-08-20T12:22:53Z</time>
      </trkpt>
      <trkpt lat="46.67635" lon="6.34786">
        <ele>1327.718018</ele>
        <time>2014-08-20T12:23:04Z</time>
      </trkpt>
      <trkpt lat="46.67652" lon="6.34785">
        <ele>1328.19873</ele>
        <time>2014-08-20T12:23:16Z</time>
      </trkpt>
      <trkpt lat="46.67677" lon="6.34781">
        <ele>1333.005127</ele>
        <time>2014-08-20T12:23:39Z</time>
      </trkpt>
      <trkpt lat="46.6771" lon="6.34772">
        <ele>1342.137939</ele>
        <time>2014-08-20T12:24:12Z</time>
      </trkpt>
      <trkpt lat="46.67727" lon="6.34766">
        <ele>1347.905762</ele>
        <time>2014-08-20T12:24:25Z</time>
      </trkpt>
      <trkpt lat="46.67732" lon="6.34763">
        <ele>1348.866943</ele>
        <time>2014-08-20T12:24:29Z</time>
      </trkpt>
      <trkpt lat="46.67746" lon="6.34758">
        <ele>1351.270264</ele>
        <time>2014-08-20T12:24:42Z</time>
      </trkpt>
      <trkpt lat="46.67779" lon="6.34757">
        <ele>1351.750977</ele>
        <time>2014-08-20T12:25:10Z</time>
      </trkpt>
      <trkpt lat="46.67792" lon="6.34754">
        <ele>1351.750977</ele>
        <time>2014-08-20T12:25:20Z</time>
      </trkpt>
      <trkpt lat="46.6781" lon="6.34748">
        <ele>1351.270264</ele>
        <time>2014-08-20T12:25:35Z</time>
      </trkpt>
      <trkpt lat="46.67828" lon="6.34746">
        <ele>1350.309082</ele>
        <time>2014-08-20T12:25:48Z</time>
      </trkpt>
      <trkpt lat="46.67844" lon="6.34756">
        <ele>1350.789551</ele>
        <time>2014-08-20T12:26:08Z</time>
      </trkpt>
      <trkpt lat="46.67851" lon="6.34769">
        <ele>1354.634766</ele>
        <time>2014-08-20T12:26:19Z</time>
      </trkpt>
      <trkpt lat="46.67848" lon="6.34796">
        <ele>1362.325439</ele>
        <time>2014-08-20T12:26:42Z</time>
      </trkpt>
      <trkpt lat="46.67862" lon="6.34812">
        <ele>1366.170654</ele>
        <time>2014-08-20T12:27:02Z</time>
      </trkpt>
      <trkpt lat="46.67879" lon="6.3484">
        <ele>1371.938477</ele>
        <time>2014-08-20T12:28:16Z</time>
      </trkpt>
      <trkpt lat="46.67917" lon="6.34879">
        <ele>1382.513184</ele>
        <time>2014-08-20T12:30:27Z</time>
      </trkpt>
      <trkpt lat="46.6792" lon="6.34882">
        <ele>1383.474365</ele>
        <time>2014-08-20T12:30:33Z</time>
      </trkpt>
      <trkpt lat="46.6793" lon="6.34896">
        <ele>1386.358398</ele>
        <time>2014-08-20T12:30:49Z</time>
      </trkpt>
      <trkpt lat="46.67983" lon="6.34962">
        <ele>1401.739502</ele>
        <time>2014-08-20T12:33:23Z</time>
      </trkpt>
      <trkpt lat="46.67984" lon="6.34975">
        <ele>1405.104248</ele>
        <time>2014-08-20T12:33:40Z</time>
      </trkpt>
      <trkpt lat="46.67984" lon="6.34987">
        <ele>1407.507568</ele>
        <time>2014-08-20T12:33:52Z</time>
      </trkpt>
      <trkpt lat="46.67985" lon="6.35003">
        <ele>1409.910645</ele>
        <time>2014-08-20T12:34:04Z</time>
      </trkpt>
      <trkpt lat="46.67985" lon="6.35006">
        <ele>1411.352783</ele>
        <time>2014-08-20T12:34:10Z</time>
      </trkpt>
      <trkpt lat="46.67979" lon="6.35022">
        <ele>1416.15918</ele>
        <time>2014-08-20T12:34:23Z</time>
      </trkpt>
      <trkpt lat="46.67977" lon="6.35025">
        <ele>1417.120605</ele>
        <time>2014-08-20T12:34:31Z</time>
      </trkpt>
      <trkpt lat="46.67973" lon="6.35054">
        <ele>1415.678711</ele>
        <time>2014-08-20T12:35:03Z</time>
      </trkpt>
      <trkpt lat="46.67975" lon="6.35057">
        <ele>1415.197998</ele>
        <time>2014-08-20T12:35:07Z</time>
      </trkpt>
      <trkpt lat="46.6798" lon="6.35072">
        <ele>1414.236572</ele>
        <time>2014-08-20T12:35:23Z</time>
      </trkpt>
      <trkpt lat="46.67986" lon="6.35077">
        <ele>1413.275391</ele>
        <time>2014-08-20T12:35:51Z</time>
      </trkpt>
      <trkpt lat="46.68" lon="6.35085">
        <ele>1410.87207</ele>
        <time>2014-08-20T12:36:07Z</time>
      </trkpt>
      <trkpt lat="46.68001" lon="6.35085">
        <ele>1410.87207</ele>
        <time>2014-08-20T12:36:11Z</time>
      </trkpt>
      <trkpt lat="46.68002" lon="6.35078">
        <ele>1411.833496</ele>
        <time>2014-08-20T12:36:39Z</time>
      </trkpt>
      <trkpt lat="46.68012" lon="6.35064">
        <ele>1415.678711</ele>
        <time>2014-08-20T12:38:10Z</time>
      </trkpt>
      <trkpt lat="46.68022" lon="6.35059">
        <ele>1415.678711</ele>
        <time>2014-08-20T12:38:19Z</time>
      </trkpt>
      <trkpt lat="46.68035" lon="6.35053">
        <ele>1417.601074</ele>
        <time>2014-08-20T12:38:32Z</time>
      </trkpt>
      <trkpt lat="46.6805" lon="6.35052">
        <ele>1417.601074</ele>
        <time>2014-08-20T12:38:46Z</time>
      </trkpt>
      <trkpt lat="46.68053" lon="6.35052">
        <ele>1417.601074</ele>
        <time>2014-08-20T12:38:49Z</time>
      </trkpt>
      <trkpt lat="46.68065" lon="6.35052">
        <ele>1418.081787</ele>
        <time>2014-08-20T12:39:01Z</time>
      </trkpt>
      <trkpt lat="46.68074" lon="6.3505">
        <ele>1421.446533</ele>
        <time>2014-08-20T12:39:09Z</time>
      </trkpt>
      <trkpt lat="46.6809" lon="6.35057">
        <ele>1424.330566</ele>
        <time>2014-08-20T12:39:24Z</time>
      </trkpt>
      <trkpt lat="46.68095" lon="6.35058">
        <ele>1423.849854</ele>
        <time>2014-08-20T12:39:31Z</time>
      </trkpt>
      <trkpt lat="46.68101" lon="6.35066">
        <ele>1424.330566</ele>
        <time>2014-08-20T12:39:45Z</time>
      </trkpt>
      <trkpt lat="46.68105" lon="6.35067">
        <ele>1423.849854</ele>
        <time>2014-08-20T12:39:49Z</time>
      </trkpt>
      <trkpt lat="46.68108" lon="6.3507">
        <ele>1424.811279</ele>
        <time>2014-08-20T12:39:54Z</time>
      </trkpt>
      <trkpt lat="46.68123" lon="6.35079">
        <ele>1427.2146</ele>
        <time>2014-08-20T12:40:07Z</time>
      </trkpt>
      <trkpt lat="46.68134" lon="6.35086">
        <ele>1429.617676</ele>
        <time>2014-08-20T12:40:18Z</time>
      </trkpt>
      <trkpt lat="46.68141" lon="6.35091">
        <ele>1430.579102</ele>
        <time>2014-08-20T12:40:25Z</time>
      </trkpt>
      <trkpt lat="46.68152" lon="6.35097">
        <ele>1432.020996</ele>
        <time>2014-08-20T12:40:39Z</time>
      </trkpt>
      <trkpt lat="46.68154" lon="6.35097">
        <ele>1434.424316</ele>
        <time>2014-08-20T12:40:42Z</time>
      </trkpt>
      <trkpt lat="46.68163" lon="6.35088">
        <ele>1438.750488</ele>
        <time>2014-08-20T12:40:56Z</time>
      </trkpt>
      <trkpt lat="46.68172" lon="6.35085">
        <ele>1441.153564</ele>
        <time>2014-08-20T12:41:06Z</time>
      </trkpt>
      <trkpt lat="46.68183" lon="6.35078">
        <ele>1446.440918</ele>
        <time>2014-08-20T12:44:20Z</time>
      </trkpt>
      <trkpt lat="46.68186" lon="6.35078">
        <ele>1446.921387</ele>
        <time>2014-08-20T12:44:22Z</time>
      </trkpt>
      <trkpt lat="46.68195" lon="6.35075">
        <ele>1447.4021</ele>
        <time>2014-08-20T12:44:32Z</time>
      </trkpt>
      <trkpt lat="46.68199" lon="6.35074">
        <ele>1447.4021</ele>
        <time>2014-08-20T12:44:36Z</time>
      </trkpt>
      <trkpt lat="46.68209" lon="6.35075">
        <ele>1448.363281</ele>
        <time>2014-08-20T12:44:47Z</time>
      </trkpt>
      <trkpt lat="46.6822" lon="6.35073">
        <ele>1447.4021</ele>
        <time>2014-08-20T12:44:57Z</time>
      </trkpt>
      <trkpt lat="46.68223" lon="6.35073">
        <ele>1449.324707</ele>
        <time>2014-08-20T12:45:01Z</time>
      </trkpt>
      <trkpt lat="46.68236" lon="6.35076">
        <ele>1454.612061</ele>
        <time>2014-08-20T12:45:18Z</time>
      </trkpt>
      <trkpt lat="46.68247" lon="6.35076">
        <ele>1452.689453</ele>
        <time>2014-08-20T12:45:34Z</time>
      </trkpt>
      <trkpt lat="46.68256" lon="6.35082">
        <ele>1460.860596</ele>
        <time>2014-08-20T12:45:48Z</time>
      </trkpt>
      <trkpt lat="46.68271" lon="6.35083">
        <ele>1472.396484</ele>
        <time>2014-08-20T12:46:11Z</time>
      </trkpt>
      <trkpt lat="46.68297" lon="6.35082">
        <ele>1481.528809</ele>
        <time>2014-08-20T12:46:57Z</time>
      </trkpt>
      <trkpt lat="46.68314" lon="6.35084">
        <ele>1482.009521</ele>
        <time>2014-08-20T12:47:16Z</time>
      </trkpt>
      <trkpt lat="46.6832" lon="6.35084">
        <ele>1482.009521</ele>
        <time>2014-08-20T12:47:27Z</time>
      </trkpt>
      <trkpt lat="46.68343" lon="6.35089">
        <ele>1477.203125</ele>
        <time>2014-08-20T12:48:27Z</time>
      </trkpt>
      <trkpt lat="46.68373" lon="6.35101">
        <ele>1472.396484</ele>
        <time>2014-08-20T12:49:08Z</time>
      </trkpt>
      <trkpt lat="46.68379" lon="6.35104">
        <ele>1471.915771</ele>
        <time>2014-08-20T12:49:22Z</time>
      </trkpt>
      <trkpt lat="46.68387" lon="6.35114">
        <ele>1473.838379</ele>
        <time>2014-08-20T12:49:46Z</time>
      </trkpt>
      <trkpt lat="46.68393" lon="6.35129">
        <ele>1475.760986</ele>
        <time>2014-08-20T12:50:08Z</time>
      </trkpt>
      <trkpt lat="46.68392" lon="6.35129">
        <ele>1476.722412</ele>
        <time>2014-08-20T12:50:37Z</time>
      </trkpt>
      <trkpt lat="46.684" lon="6.35127">
        <ele>1476.241699</ele>
        <time>2014-08-20T12:54:00Z</time>
      </trkpt>
      <trkpt lat="46.68413" lon="6.35127">
        <ele>1477.203125</ele>
        <time>2014-08-20T12:54:14Z</time>
      </trkpt>
      <trkpt lat="46.68426" lon="6.35123">
        <ele>1474.799805</ele>
        <time>2014-08-20T12:54:28Z</time>
      </trkpt>
      <trkpt lat="46.68436" lon="6.35115">
        <ele>1475.280273</ele>
        <time>2014-08-20T12:54:42Z</time>
      </trkpt>
      <trkpt lat="46.68443" lon="6.35122">
        <ele>1475.280273</ele>
        <time>2014-08-20T12:55:05Z</time>
      </trkpt>
      <trkpt lat="46.68443" lon="6.35126">
        <ele>1475.280273</ele>
        <time>2014-08-20T12:55:47Z</time>
      </trkpt>
      <trkpt lat="46.68446" lon="6.35131">
        <ele>1475.280273</ele>
        <time>2014-08-20T12:57:37Z</time>
      </trkpt>
      <trkpt lat="46.6845" lon="6.35145">
        <ele>1475.760986</ele>
        <time>2014-08-20T12:57:48Z</time>
      </trkpt>
      <trkpt lat="46.68454" lon="6.35159">
        <ele>1475.760986</ele>
        <time>2014-08-20T12:58:01Z</time>
      </trkpt>
      <trkpt lat="46.68457" lon="6.35168">
        <ele>1475.280273</ele>
        <time>2014-08-20T12:58:15Z</time>
      </trkpt>
      <trkpt lat="46.68456" lon="6.35178">
        <ele>1474.799805</ele>
        <time>2014-08-20T12:58:55Z</time>
      </trkpt>
      <trkpt lat="46.68457" lon="6.35178">
        <ele>1474.799805</ele>
        <time>2014-08-20T12:59:31Z</time>
      </trkpt>
      <trkpt lat="46.68448" lon="6.35166">
        <ele>1475.760986</ele>
        <time>2014-08-20T13:02:42Z</time>
      </trkpt>
      <trkpt lat="46.68436" lon="6.35154">
        <ele>1476.722412</ele>
        <time>2014-08-20T13:02:56Z</time>
      </trkpt>
      <trkpt lat="46.6843" lon="6.3515">
        <ele>1477.683594</ele>
        <time>2014-08-20T13:03:02Z</time>
      </trkpt>
      <trkpt lat="46.68421" lon="6.35149">
        <ele>1481.04834</ele>
        <time>2014-08-20T13:03:15Z</time>
      </trkpt>
      <trkpt lat="46.68414" lon="6.35139">
        <ele>1484.413086</ele>
        <time>2014-08-20T13:03:24Z</time>
      </trkpt>
      <trkpt lat="46.68412" lon="6.35137">
        <ele>1485.85498</ele>
        <time>2014-08-20T13:03:26Z</time>
      </trkpt>
      <trkpt lat="46.68397" lon="6.35126">
        <ele>1492.103516</ele>
        <time>2014-08-20T13:03:40Z</time>
      </trkpt>
      <trkpt lat="46.68395" lon="6.35124">
        <ele>1493.064697</ele>
        <time>2014-08-20T13:03:42Z</time>
      </trkpt>
      <trkpt lat="46.6839" lon="6.35124">
        <ele>1491.622803</ele>
        <time>2014-08-20T13:03:56Z</time>
      </trkpt>
      <trkpt lat="46.68387" lon="6.35119">
        <ele>1492.103516</ele>
        <time>2014-08-20T13:04:01Z</time>
      </trkpt>
      <trkpt lat="46.68384" lon="6.35115">
        <ele>1491.622803</ele>
        <time>2014-08-20T13:04:08Z</time>
      </trkpt>
      <trkpt lat="46.68379" lon="6.35118">
        <ele>1488.739014</ele>
        <time>2014-08-20T13:04:22Z</time>
      </trkpt>
      <trkpt lat="46.68383" lon="6.35126">
        <ele>1469.993164</ele>
        <time>2014-08-20T13:09:42Z</time>
      </trkpt>
      <trkpt lat="46.68386" lon="6.35115">
        <ele>1482.009521</ele>
        <time>2014-08-20T13:14:05Z</time>
      </trkpt>
      <trkpt lat="46.68387" lon="6.35115">
        <ele>1473.838379</ele>
        <time>2014-08-20T13:16:10Z</time>
      </trkpt>
      <trkpt lat="46.68381" lon="6.35126">
        <ele>1468.070557</ele>
        <time>2014-08-20T13:17:20Z</time>
      </trkpt>
      <trkpt lat="46.68382" lon="6.35123">
        <ele>1470.473877</ele>
        <time>2014-08-20T13:18:21Z</time>
      </trkpt>
      <trkpt lat="46.68383" lon="6.35127">
        <ele>1470.95459</ele>
        <time>2014-08-20T13:18:44Z</time>
      </trkpt>
      <trkpt lat="46.68381" lon="6.35127">
        <ele>1470.95459</ele>
        <time>2014-08-20T13:19:22Z</time>
      </trkpt>
      <trkpt lat="46.68378" lon="6.35123">
        <ele>1470.473877</ele>
        <time>2014-08-20T13:19:45Z</time>
      </trkpt>
      <trkpt lat="46.68378" lon="6.35121">
        <ele>1470.473877</ele>
        <time>2014-08-20T13:20:54Z</time>
      </trkpt>
      <trkpt lat="46.68383" lon="6.35128">
        <ele>1471.435059</ele>
        <time>2014-08-20T13:21:26Z</time>
      </trkpt>
      <trkpt lat="46.68376" lon="6.35121">
        <ele>1470.473877</ele>
        <time>2014-08-20T13:23:22Z</time>
      </trkpt>
      <trkpt lat="46.68367" lon="6.35118">
        <ele>1468.55127</ele>
        <time>2014-08-20T13:23:45Z</time>
      </trkpt>
      <trkpt lat="46.68354" lon="6.35113">
        <ele>1463.744385</ele>
        <time>2014-08-20T13:23:59Z</time>
      </trkpt>
      <trkpt lat="46.68342" lon="6.35097">
        <ele>1459.418701</ele>
        <time>2014-08-20T13:24:18Z</time>
      </trkpt>
      <trkpt lat="46.68341" lon="6.35095">
        <ele>1458.457275</ele>
        <time>2014-08-20T13:24:20Z</time>
      </trkpt>
      <trkpt lat="46.68327" lon="6.35091">
        <ele>1457.015381</ele>
        <time>2014-08-20T13:24:34Z</time>
      </trkpt>
      <trkpt lat="46.68314" lon="6.3509">
        <ele>1453.170166</ele>
        <time>2014-08-20T13:24:48Z</time>
      </trkpt>
      <trkpt lat="46.68303" lon="6.35087">
        <ele>1449.80542</ele>
        <time>2014-08-20T13:25:02Z</time>
      </trkpt>
      <trkpt lat="46.68293" lon="6.35083">
        <ele>1448.843994</ele>
        <time>2014-08-20T13:25:13Z</time>
      </trkpt>
      <trkpt lat="46.68279" lon="6.3508">
        <ele>1448.843994</ele>
        <time>2014-08-20T13:25:27Z</time>
      </trkpt>
      <trkpt lat="46.68264" lon="6.3508">
        <ele>1447.4021</ele>
        <time>2014-08-20T13:25:40Z</time>
      </trkpt>
      <trkpt lat="46.68246" lon="6.35074">
        <ele>1444.518066</ele>
        <time>2014-08-20T13:25:56Z</time>
      </trkpt>
      <trkpt lat="46.68228" lon="6.35063">
        <ele>1440.192383</ele>
        <time>2014-08-20T13:26:11Z</time>
      </trkpt>
      <trkpt lat="46.6822" lon="6.35061">
        <ele>1439.71167</ele>
        <time>2014-08-20T13:26:18Z</time>
      </trkpt>
      <trkpt lat="46.68205" lon="6.35062">
        <ele>1436.827637</ele>
        <time>2014-08-20T13:26:32Z</time>
      </trkpt>
      <trkpt lat="46.682" lon="6.35063">
        <ele>1435.385498</ele>
        <time>2014-08-20T13:26:36Z</time>
      </trkpt>
      <trkpt lat="46.68195" lon="6.35062">
        <ele>1433.462891</ele>
        <time>2014-08-20T13:26:41Z</time>
      </trkpt>
      <trkpt lat="46.6818" lon="6.35065">
        <ele>1431.059814</ele>
        <time>2014-08-20T13:26:55Z</time>
      </trkpt>
      <trkpt lat="46.68175" lon="6.35066">
        <ele>1429.136963</ele>
        <time>2014-08-20T13:27:01Z</time>
      </trkpt>
      <trkpt lat="46.68161" lon="6.35067">
        <ele>1425.772461</ele>
        <time>2014-08-20T13:27:15Z</time>
      </trkpt>
      <trkpt lat="46.68145" lon="6.35065">
        <ele>1424.330566</ele>
        <time>2014-08-20T13:27:29Z</time>
      </trkpt>
      <trkpt lat="46.68141" lon="6.35064">
        <ele>1422.888672</ele>
        <time>2014-08-20T13:27:43Z</time>
      </trkpt>
      <trkpt lat="46.6814" lon="6.35067">
        <ele>1422.407959</ele>
        <time>2014-08-20T13:28:11Z</time>
      </trkpt>
      <trkpt lat="46.68127" lon="6.35064">
        <ele>1422.407959</ele>
        <time>2014-08-20T13:31:09Z</time>
      </trkpt>
      <trkpt lat="46.68124" lon="6.35061">
        <ele>1422.407959</ele>
        <time>2014-08-20T13:31:29Z</time>
      </trkpt>
      <trkpt lat="46.68117" lon="6.3506">
        <ele>1420.966064</ele>
        <time>2014-08-20T13:31:49Z</time>
      </trkpt>
      <trkpt lat="46.68112" lon="6.3506">
        <ele>1418.5625</ele>
        <time>2014-08-20T13:32:11Z</time>
      </trkpt>
      <trkpt lat="46.68098" lon="6.35061">
        <ele>1417.120605</ele>
        <time>2014-08-20T13:32:26Z</time>
      </trkpt>
      <trkpt lat="46.68092" lon="6.35061">
        <ele>1417.601074</ele>
        <time>2014-08-20T13:32:33Z</time>
      </trkpt>
      <trkpt lat="46.68078" lon="6.35055">
        <ele>1413.275391</ele>
        <time>2014-08-20T13:32:47Z</time>
      </trkpt>
      <trkpt lat="46.68059" lon="6.35055">
        <ele>1409.430176</ele>
        <time>2014-08-20T13:33:02Z</time>
      </trkpt>
      <trkpt lat="46.68043" lon="6.35055">
        <ele>1406.06543</ele>
        <time>2014-08-20T13:33:15Z</time>
      </trkpt>
      <trkpt lat="46.68031" lon="6.35054">
        <ele>1406.06543</ele>
        <time>2014-08-20T13:33:29Z</time>
      </trkpt>
      <trkpt lat="46.68018" lon="6.35061">
        <ele>1405.104248</ele>
        <time>2014-08-20T13:33:42Z</time>
      </trkpt>
      <trkpt lat="46.68009" lon="6.35072">
        <ele>1405.104248</ele>
        <time>2014-08-20T13:33:51Z</time>
      </trkpt>
      <trkpt lat="46.68" lon="6.35086">
        <ele>1405.584961</ele>
        <time>2014-08-20T13:34:08Z</time>
      </trkpt>
      <trkpt lat="46.67999" lon="6.35086">
        <ele>1405.104248</ele>
        <time>2014-08-20T13:34:09Z</time>
      </trkpt>
      <trkpt lat="46.67992" lon="6.35085">
        <ele>1405.104248</ele>
        <time>2014-08-20T13:34:16Z</time>
      </trkpt>
      <trkpt lat="46.67984" lon="6.35082">
        <ele>1404.623535</ele>
        <time>2014-08-20T13:34:23Z</time>
      </trkpt>
      <trkpt lat="46.67977" lon="6.35074">
        <ele>1403.662109</ele>
        <time>2014-08-20T13:34:30Z</time>
      </trkpt>
      <trkpt lat="46.67961" lon="6.35069">
        <ele>1402.219971</ele>
        <time>2014-08-20T13:34:44Z</time>
      </trkpt>
      <trkpt lat="46.67956" lon="6.35072">
        <ele>1401.258789</ele>
        <time>2014-08-20T13:34:50Z</time>
      </trkpt>
      <trkpt lat="46.6794" lon="6.35075">
        <ele>1399.816895</ele>
        <time>2014-08-20T13:35:06Z</time>
      </trkpt>
      <trkpt lat="46.67929" lon="6.35085">
        <ele>1396.452393</ele>
        <time>2014-08-20T13:37:26Z</time>
      </trkpt>
      <trkpt lat="46.67922" lon="6.3509">
        <ele>1396.452393</ele>
        <time>2014-08-20T13:37:32Z</time>
      </trkpt>
      <trkpt lat="46.67905" lon="6.35094">
        <ele>1392.607178</ele>
        <time>2014-08-20T13:37:46Z</time>
      </trkpt>
      <trkpt lat="46.67893" lon="6.35094">
        <ele>1389.723145</ele>
        <time>2014-08-20T13:37:57Z</time>
      </trkpt>
      <trkpt lat="46.67877" lon="6.35094">
        <ele>1387.800293</ele>
        <time>2014-08-20T13:38:09Z</time>
      </trkpt>
      <trkpt lat="46.67858" lon="6.35093">
        <ele>1386.358398</ele>
        <time>2014-08-20T13:38:23Z</time>
      </trkpt>
      <trkpt lat="46.67846" lon="6.35091">
        <ele>1384.916504</ele>
        <time>2014-08-20T13:38:34Z</time>
      </trkpt>
      <trkpt lat="46.67831" lon="6.35089">
        <ele>1381.071289</ele>
        <time>2014-08-20T13:38:48Z</time>
      </trkpt>
      <trkpt lat="46.67809" lon="6.35085">
        <ele>1380.109863</ele>
        <time>2014-08-20T13:39:04Z</time>
      </trkpt>
      <trkpt lat="46.67805" lon="6.35087">
        <ele>1380.590576</ele>
        <time>2014-08-20T13:39:19Z</time>
      </trkpt>
      <trkpt lat="46.67797" lon="6.35086">
        <ele>1383.474365</ele>
        <time>2014-08-20T13:40:00Z</time>
      </trkpt>
      <trkpt lat="46.67785" lon="6.35081">
        <ele>1381.551758</ele>
        <time>2014-08-20T13:40:12Z</time>
      </trkpt>
      <trkpt lat="46.67782" lon="6.3508">
        <ele>1380.590576</ele>
        <time>2014-08-20T13:40:15Z</time>
      </trkpt>
      <trkpt lat="46.67766" lon="6.35077">
        <ele>1378.667969</ele>
        <time>2014-08-20T13:40:29Z</time>
      </trkpt>
      <trkpt lat="46.67757" lon="6.35074">
        <ele>1376.745361</ele>
        <time>2014-08-20T13:40:36Z</time>
      </trkpt>
      <trkpt lat="46.67741" lon="6.35066">
        <ele>1375.783936</ele>
        <time>2014-08-20T13:40:49Z</time>
      </trkpt>
      <trkpt lat="46.67736" lon="6.35064">
        <ele>1376.745361</ele>
        <time>2014-08-20T13:40:53Z</time>
      </trkpt>
      <trkpt lat="46.67723" lon="6.35054">
        <ele>1375.303223</ele>
        <time>2014-08-20T13:41:07Z</time>
      </trkpt>
      <trkpt lat="46.67702" lon="6.35029">
        <ele>1379.148438</ele>
        <time>2014-08-20T13:41:32Z</time>
      </trkpt>
      <trkpt lat="46.67683" lon="6.3502">
        <ele>1379.148438</ele>
        <time>2014-08-20T13:41:45Z</time>
      </trkpt>
      <trkpt lat="46.67676" lon="6.35021">
        <ele>1377.706543</ele>
        <time>2014-08-20T13:41:52Z</time>
      </trkpt>
      <trkpt lat="46.6767" lon="6.35028">
        <ele>1371.457764</ele>
        <time>2014-08-20T13:42:09Z</time>
      </trkpt>
      <trkpt lat="46.67664" lon="6.35033">
        <ele>1370.977295</ele>
        <time>2014-08-20T13:42:46Z</time>
      </trkpt>
      <trkpt lat="46.67648" lon="6.3502">
        <ele>1371.938477</ele>
        <time>2014-08-20T13:43:42Z</time>
      </trkpt>
      <trkpt lat="46.67633" lon="6.35029">
        <ele>1370.977295</ele>
        <time>2014-08-20T13:43:57Z</time>
      </trkpt>
      <trkpt lat="46.67619" lon="6.35021">
        <ele>1366.170654</ele>
        <time>2014-08-20T13:44:10Z</time>
      </trkpt>
      <trkpt lat="46.67611" lon="6.35016">
        <ele>1363.286865</ele>
        <time>2014-08-20T13:44:21Z</time>
      </trkpt>
      <trkpt lat="46.67594" lon="6.35032">
        <ele>1358.960938</ele>
        <time>2014-08-20T13:44:44Z</time>
      </trkpt>
      <trkpt lat="46.67574" lon="6.35029">
        <ele>1355.596191</ele>
        <time>2014-08-20T13:45:01Z</time>
      </trkpt>
      <trkpt lat="46.67554" lon="6.35032">
        <ele>1354.634766</ele>
        <time>2014-08-20T13:45:15Z</time>
      </trkpt>
      <trkpt lat="46.67539" lon="6.35027">
        <ele>1354.634766</ele>
        <time>2014-08-20T13:45:25Z</time>
      </trkpt>
      <trkpt lat="46.67523" lon="6.35023">
        <ele>1356.076904</ele>
        <time>2014-08-20T13:45:37Z</time>
      </trkpt>
      <trkpt lat="46.67518" lon="6.35024">
        <ele>1356.557617</ele>
        <time>2014-08-20T13:45:41Z</time>
      </trkpt>
      <trkpt lat="46.67505" lon="6.35021">
        <ele>1357.999756</ele>
        <time>2014-08-20T13:45:52Z</time>
      </trkpt>
      <trkpt lat="46.67484" lon="6.35018">
        <ele>1358.480225</ele>
        <time>2014-08-20T13:46:08Z</time>
      </trkpt>
      <trkpt lat="46.67468" lon="6.35009">
        <ele>1351.270264</ele>
        <time>2014-08-20T13:46:20Z</time>
      </trkpt>
      <trkpt lat="46.67465" lon="6.35009">
        <ele>1350.789551</ele>
        <time>2014-08-20T13:46:22Z</time>
      </trkpt>
      <trkpt lat="46.67456" lon="6.35008">
        <ele>1342.137939</ele>
        <time>2014-08-20T13:46:35Z</time>
      </trkpt>
      <trkpt lat="46.67444" lon="6.35">
        <ele>1341.176514</ele>
        <time>2014-08-20T13:46:50Z</time>
      </trkpt>
      <trkpt lat="46.67429" lon="6.34999">
        <ele>1339.253662</ele>
        <time>2014-08-20T13:47:07Z</time>
      </trkpt>
      <trkpt lat="46.67411" lon="6.34994">
        <ele>1333.005127</ele>
        <time>2014-08-20T13:47:34Z</time>
      </trkpt>
      <trkpt lat="46.674" lon="6.34995">
        <ele>1332.043945</ele>
        <time>2014-08-20T13:47:58Z</time>
      </trkpt>
      <trkpt lat="46.67359" lon="6.35">
        <ele>1314.740234</ele>
        <time>2014-08-20T13:49:35Z</time>
      </trkpt>
      <trkpt lat="46.67357" lon="6.35003">
        <ele>1311.856445</ele>
        <time>2014-08-20T13:50:13Z</time>
      </trkpt>
      <trkpt lat="46.67347" lon="6.35012">
        <ele>1308.01123</ele>
        <time>2014-08-20T13:50:45Z</time>
      </trkpt>
      <trkpt lat="46.67357" lon="6.35">
        <ele>1308.01123</ele>
        <time>2014-08-20T13:54:22Z</time>
      </trkpt>
      <trkpt lat="46.67354" lon="6.35009">
        <ele>1302.723633</ele>
        <time>2014-08-20T13:57:31Z</time>
      </trkpt>
      <trkpt lat="46.67354" lon="6.35022">
        <ele>1303.204346</ele>
        <time>2014-08-20T14:11:03Z</time>
      </trkpt>
      <trkpt lat="46.6736" lon="6.35016">
        <ele>1303.204346</ele>
        <time>2014-08-20T14:11:12Z</time>
      </trkpt>
      <trkpt lat="46.67356" lon="6.35018">
        <ele>1303.685059</ele>
        <time>2014-08-20T14:11:25Z</time>
      </trkpt>
      <trkpt lat="46.6734" lon="6.35027">
        <ele>1303.685059</ele>
        <time>2014-08-20T14:13:05Z</time>
      </trkpt>
      <trkpt lat="46.67336" lon="6.35034">
        <ele>1303.685059</ele>
        <time>2014-08-20T14:13:16Z</time>
      </trkpt>
      <trkpt lat="46.67317" lon="6.35037">
        <ele>1302.24292</ele>
        <time>2014-08-20T14:13:44Z</time>
      </trkpt>
      <trkpt lat="46.67294" lon="6.35038">
        <ele>1295.994629</ele>
        <time>2014-08-20T14:15:01Z</time>
      </trkpt>
      <trkpt lat="46.67294" lon="6.35039">
        <ele>1287.823242</ele>
        <time>2014-08-20T14:25:27Z</time>
      </trkpt>
      <trkpt lat="46.6729" lon="6.34963">
        <ele>1277.729492</ele>
        <time>2014-08-20T14:30:48Z</time>
      </trkpt>
      <trkpt lat="46.67292" lon="6.3497">
        <ele>1277.249023</ele>
        <time>2014-08-20T14:31:31Z</time>
      </trkpt>
      <trkpt lat="46.67275" lon="6.34985">
        <ele>1276.287598</ele>
        <time>2014-08-20T14:32:12Z</time>
      </trkpt>
      <trkpt lat="46.67262" lon="6.34988">
        <ele>1275.325928</ele>
        <time>2014-08-20T14:32:26Z</time>
      </trkpt>
      <trkpt lat="46.67255" lon="6.34989">
        <ele>1274.364746</ele>
        <time>2014-08-20T14:32:37Z</time>
      </trkpt>
      <trkpt lat="46.67254" lon="6.34989">
        <ele>1274.364746</ele>
        <time>2014-08-20T14:32:38Z</time>
      </trkpt>
      <trkpt lat="46.67253" lon="6.34987">
        <ele>1274.364746</ele>
        <time>2014-08-20T14:32:40Z</time>
      </trkpt>
      <trkpt lat="46.67245" lon="6.34981">
        <ele>1272.922852</ele>
        <time>2014-08-20T14:32:59Z</time>
      </trkpt>
      <trkpt lat="46.67233" lon="6.34973">
        <ele>1270.519531</ele>
        <time>2014-08-20T14:33:27Z</time>
      </trkpt>
      <trkpt lat="46.67222" lon="6.34966">
        <ele>1269.55835</ele>
        <time>2014-08-20T14:33:53Z</time>
      </trkpt>
      <trkpt lat="46.67167" lon="6.34956">
        <ele>1264.270996</ele>
        <time>2014-08-20T14:34:56Z</time>
      </trkpt>
      <trkpt lat="46.67128" lon="6.34963">
        <ele>1258.022461</ele>
        <time>2014-08-20T14:35:35Z</time>
      </trkpt>
      <trkpt lat="46.67124" lon="6.34966">
        <ele>1258.022461</ele>
        <time>2014-08-20T14:35:38Z</time>
      </trkpt>
      <trkpt lat="46.67115" lon="6.34965">
        <ele>1258.983643</ele>
        <time>2014-08-20T14:35:51Z</time>
      </trkpt>
      <trkpt lat="46.67094" lon="6.34964">
        <ele>1256.580322</ele>
        <time>2014-08-20T14:36:16Z</time>
      </trkpt>
      <trkpt lat="46.67087" lon="6.34962">
        <ele>1255.138428</ele>
        <time>2014-08-20T14:36:26Z</time>
      </trkpt>
      <trkpt lat="46.67076" lon="6.34954">
        <ele>1254.657715</ele>
        <time>2014-08-20T14:36:38Z</time>
      </trkpt>
      <trkpt lat="46.67067" lon="6.34955">
        <ele>1257.541748</ele>
        <time>2014-08-20T14:36:48Z</time>
      </trkpt>
      <trkpt lat="46.67058" lon="6.34953">
        <ele>1256.099609</ele>
        <time>2014-08-20T14:36:56Z</time>
      </trkpt>
      <trkpt lat="46.67049" lon="6.34946">
        <ele>1253.696533</ele>
        <time>2014-08-20T14:37:04Z</time>
      </trkpt>
      <trkpt lat="46.6704" lon="6.34935">
        <ele>1249.370605</ele>
        <time>2014-08-20T14:37:14Z</time>
      </trkpt>
      <trkpt lat="46.67037" lon="6.34929">
        <ele>1248.889893</ele>
        <time>2014-08-20T14:37:20Z</time>
      </trkpt>
      <trkpt lat="46.67029" lon="6.34912">
        <ele>1246.486816</ele>
        <time>2014-08-20T14:37:30Z</time>
      </trkpt>
      <trkpt lat="46.67026" lon="6.34896">
        <ele>1244.563965</ele>
        <time>2014-08-20T14:37:41Z</time>
      </trkpt>
      <trkpt lat="46.67018" lon="6.34871">
        <ele>1235.431396</ele>
        <time>2014-08-20T14:38:14Z</time>
      </trkpt>
      <trkpt lat="46.67018" lon="6.3485">
        <ele>1233.028076</ele>
        <time>2014-08-20T14:38:31Z</time>
      </trkpt>
      <trkpt lat="46.6702" lon="6.34843">
        <ele>1231.586182</ele>
        <time>2014-08-20T14:38:35Z</time>
      </trkpt>
      <trkpt lat="46.67023" lon="6.34829">
        <ele>1229.663574</ele>
        <time>2014-08-20T14:38:56Z</time>
      </trkpt>
      <trkpt lat="46.67027" lon="6.34831">
        <ele>1229.663574</ele>
        <time>2014-08-20T14:39:17Z</time>
      </trkpt>
      <trkpt lat="46.67038" lon="6.34826">
        <ele>1230.144287</ele>
        <time>2014-08-20T14:39:30Z</time>
      </trkpt>
      <trkpt lat="46.67037" lon="6.34825">
        <ele>1230.144287</ele>
        <time>2014-08-20T14:39:33Z</time>
      </trkpt>
      <trkpt lat="46.67026" lon="6.34831">
        <ele>1229.182861</ele>
        <time>2014-08-20T14:39:43Z</time>
      </trkpt>
      <trkpt lat="46.67026" lon="6.34831">
        <ele>1229.182861</ele>
        <time>2014-08-20T14:39:44Z</time>
      </trkpt>
      <trkpt lat="46.67024" lon="6.3483">
        <ele>1228.702393</ele>
        <time>2014-08-20T14:39:46Z</time>
      </trkpt>
      <trkpt lat="46.67013" lon="6.34831">
        <ele>1225.337402</ele>
        <time>2014-08-20T14:39:57Z</time>
      </trkpt>
      <trkpt lat="46.6701" lon="6.3483">
        <ele>1224.856934</ele>
        <time>2014-08-20T14:39:59Z</time>
      </trkpt>
      <trkpt lat="46.67" lon="6.34819">
        <ele>1224.856934</ele>
        <time>2014-08-20T14:40:11Z</time>
      </trkpt>
      <trkpt lat="46.66995" lon="6.34811">
        <ele>1225.818115</ele>
        <time>2014-08-20T14:40:19Z</time>
      </trkpt>
      <trkpt lat="46.66984" lon="6.34809">
        <ele>1230.625</ele>
        <time>2014-08-20T14:40:39Z</time>
      </trkpt>
      <trkpt lat="46.66938" lon="6.34803">
        <ele>1229.182861</ele>
        <time>2014-08-20T14:41:44Z</time>
      </trkpt>
      <trkpt lat="46.66929" lon="6.34803">
        <ele>1228.22168</ele>
        <time>2014-08-20T14:41:52Z</time>
      </trkpt>
      <trkpt lat="46.66903" lon="6.348">
        <ele>1225.337402</ele>
        <time>2014-08-20T14:42:12Z</time>
      </trkpt>
      <trkpt lat="46.66895" lon="6.34801">
        <ele>1224.856934</ele>
        <time>2014-08-20T14:42:17Z</time>
      </trkpt>
      <trkpt lat="46.66863" lon="6.34811">
        <ele>1221.9729</ele>
        <time>2014-08-20T14:42:41Z</time>
      </trkpt>
      <trkpt lat="46.66841" lon="6.34821">
        <ele>1220.050293</ele>
        <time>2014-08-20T14:43:03Z</time>
      </trkpt>
      <trkpt lat="46.66829" lon="6.34825">
        <ele>1217.646973</ele>
        <time>2014-08-20T14:43:14Z</time>
      </trkpt>
      <trkpt lat="46.66822" lon="6.34828">
        <ele>1216.205078</ele>
        <time>2014-08-20T14:43:21Z</time>
      </trkpt>
      <trkpt lat="46.66804" lon="6.3483">
        <ele>1214.282471</ele>
        <time>2014-08-20T14:43:34Z</time>
      </trkpt>
      <trkpt lat="46.66797" lon="6.34831">
        <ele>1213.321289</ele>
        <time>2014-08-20T14:43:39Z</time>
      </trkpt>
      <trkpt lat="46.6679" lon="6.34835">
        <ele>1213.801758</ele>
        <time>2014-08-20T14:43:55Z</time>
      </trkpt>
      <trkpt lat="46.66769" lon="6.34847">
        <ele>1216.205078</ele>
        <time>2014-08-20T14:44:23Z</time>
      </trkpt>
      <trkpt lat="46.6676" lon="6.34857">
        <ele>1214.763184</ele>
        <time>2014-08-20T14:44:34Z</time>
      </trkpt>
      <trkpt lat="46.66752" lon="6.34869">
        <ele>1213.801758</ele>
        <time>2014-08-20T14:44:46Z</time>
      </trkpt>
      <trkpt lat="46.66744" lon="6.34872">
        <ele>1211.398438</ele>
        <time>2014-08-20T14:44:54Z</time>
      </trkpt>
      <trkpt lat="46.66732" lon="6.34869">
        <ele>1207.553223</ele>
        <time>2014-08-20T14:45:05Z</time>
      </trkpt>
      <trkpt lat="46.66716" lon="6.34861">
        <ele>1206.111084</ele>
        <time>2014-08-20T14:45:19Z</time>
      </trkpt>
      <trkpt lat="46.66712" lon="6.34859">
        <ele>1205.149902</ele>
        <time>2014-08-20T14:45:22Z</time>
      </trkpt>
      <trkpt lat="46.66693" lon="6.34855">
        <ele>1203.227295</ele>
        <time>2014-08-20T14:45:34Z</time>
      </trkpt>
      <trkpt lat="46.66683" lon="6.34854">
        <ele>1202.265869</ele>
        <time>2014-08-20T14:45:51Z</time>
      </trkpt>
      <trkpt lat="46.66658" lon="6.3485">
        <ele>1203.227295</ele>
        <time>2014-08-20T14:46:21Z</time>
      </trkpt>
      <trkpt lat="46.6665" lon="6.34866">
        <ele>1202.746582</ele>
        <time>2014-08-20T14:46:34Z</time>
      </trkpt>
      <trkpt lat="46.66643" lon="6.34888">
        <ele>1199.862793</ele>
        <time>2014-08-20T14:46:54Z</time>
      </trkpt>
      <trkpt lat="46.6664" lon="6.34895">
        <ele>1198.901367</ele>
        <time>2014-08-20T14:47:00Z</time>
      </trkpt>
      <trkpt lat="46.66635" lon="6.34895">
        <ele>1198.420654</ele>
        <time>2014-08-20T14:47:04Z</time>
      </trkpt>
      <trkpt lat="46.66627" lon="6.34891">
        <ele>1197.459473</ele>
        <time>2014-08-20T14:47:10Z</time>
      </trkpt>
      <trkpt lat="46.66618" lon="6.34885">
        <ele>1195.055908</ele>
        <time>2014-08-20T14:47:18Z</time>
      </trkpt>
      <trkpt lat="46.66608" lon="6.34881">
        <ele>1190.72998</ele>
        <time>2014-08-20T14:47:24Z</time>
      </trkpt>
      <trkpt lat="46.66601" lon="6.34878">
        <ele>1188.807617</ele>
        <time>2014-08-20T14:47:30Z</time>
      </trkpt>
      <trkpt lat="46.66596" lon="6.34876">
        <ele>1187.846191</ele>
        <time>2014-08-20T14:47:34Z</time>
      </trkpt>
      <trkpt lat="46.66584" lon="6.34876">
        <ele>1184.481689</ele>
        <time>2014-08-20T14:47:44Z</time>
      </trkpt>
      <trkpt lat="46.6657" lon="6.34867">
        <ele>1177.752197</ele>
        <time>2014-08-20T14:48:00Z</time>
      </trkpt>
      <trkpt lat="46.66562" lon="6.34856">
        <ele>1175.82959</ele>
        <time>2014-08-20T14:48:11Z</time>
      </trkpt>
      <trkpt lat="46.6656" lon="6.3485">
        <ele>1175.82959</ele>
        <time>2014-08-20T14:48:13Z</time>
      </trkpt>
      <trkpt lat="46.66557" lon="6.34837">
        <ele>1173.906982</ele>
        <time>2014-08-20T14:48:23Z</time>
      </trkpt>
      <trkpt lat="46.66555" lon="6.34833">
        <ele>1172.945801</ele>
        <time>2014-08-20T14:48:26Z</time>
      </trkpt>
      <trkpt lat="46.66547" lon="6.34807">
        <ele>1171.023193</ele>
        <time>2014-08-20T14:48:39Z</time>
      </trkpt>
      <trkpt lat="46.66543" lon="6.3479">
        <ele>1169.100586</ele>
        <time>2014-08-20T14:48:50Z</time>
      </trkpt>
      <trkpt lat="46.6654" lon="6.34784">
        <ele>1169.100586</ele>
        <time>2014-08-20T14:48:54Z</time>
      </trkpt>
      <trkpt lat="46.66539" lon="6.3478">
        <ele>1169.100586</ele>
        <time>2014-08-20T14:48:56Z</time>
      </trkpt>
      <trkpt lat="46.66529" lon="6.34766">
        <ele>1169.581299</ele>
        <time>2014-08-20T14:49:07Z</time>
      </trkpt>
      <trkpt lat="46.66521" lon="6.34763">
        <ele>1170.061768</ele>
        <time>2014-08-20T14:49:13Z</time>
      </trkpt>
      <trkpt lat="46.66506" lon="6.34754">
        <ele>1171.503662</ele>
        <time>2014-08-20T14:49:26Z</time>
      </trkpt>
      <trkpt lat="46.66485" lon="6.34743">
        <ele>1171.984375</ele>
        <time>2014-08-20T14:49:42Z</time>
      </trkpt>
      <trkpt lat="46.66483" lon="6.34743">
        <ele>1171.984375</ele>
        <time>2014-08-20T14:49:43Z</time>
      </trkpt>
      <trkpt lat="46.66467" lon="6.34733">
        <ele>1170.54248</ele>
        <time>2014-08-20T14:49:57Z</time>
      </trkpt>
      <trkpt lat="46.66454" lon="6.3473">
        <ele>1170.54248</ele>
        <time>2014-08-20T14:50:08Z</time>
      </trkpt>
      <trkpt lat="46.66447" lon="6.34732">
        <ele>1170.061768</ele>
        <time>2014-08-20T14:50:15Z</time>
      </trkpt>
      <trkpt lat="46.66425" lon="6.34728">
        <ele>1171.503662</ele>
        <time>2014-08-20T14:50:32Z</time>
      </trkpt>
      <trkpt lat="46.66391" lon="6.34724">
        <ele>1168.619873</ele>
        <time>2014-08-20T14:50:56Z</time>
      </trkpt>
      <trkpt lat="46.66379" lon="6.34724">
        <ele>1163.812988</ele>
        <time>2014-08-20T14:51:04Z</time>
      </trkpt>
      <trkpt lat="46.66369" lon="6.34725">
        <ele>1161.409912</ele>
        <time>2014-08-20T14:51:11Z</time>
      </trkpt>
      <trkpt lat="46.66349" lon="6.34724">
        <ele>1153.719482</ele>
        <time>2014-08-20T14:51:26Z</time>
      </trkpt>
      <trkpt lat="46.66335" lon="6.34727">
        <ele>1149.393555</ele>
        <time>2014-08-20T14:51:38Z</time>
      </trkpt>
      <trkpt lat="46.66316" lon="6.34727">
        <ele>1145.067383</ele>
        <time>2014-08-20T14:51:52Z</time>
      </trkpt>
      <trkpt lat="46.66299" lon="6.34728">
        <ele>1143.625488</ele>
        <time>2014-08-20T14:52:04Z</time>
      </trkpt>
      <trkpt lat="46.66281" lon="6.34726">
        <ele>1142.664307</ele>
        <time>2014-08-20T14:52:17Z</time>
      </trkpt>
      <trkpt lat="46.66278" lon="6.34725">
        <ele>1143.625488</ele>
        <time>2014-08-20T14:52:19Z</time>
      </trkpt>
      <trkpt lat="46.66264" lon="6.34725">
        <ele>1144.58667</ele>
        <time>2014-08-20T14:52:30Z</time>
      </trkpt>
      <trkpt lat="46.66247" lon="6.34733">
        <ele>1146.509521</ele>
        <time>2014-08-20T14:52:42Z</time>
      </trkpt>
      <trkpt lat="46.66231" lon="6.34742">
        <ele>1151.316162</ele>
        <time>2014-08-20T14:52:56Z</time>
      </trkpt>
      <trkpt lat="46.66211" lon="6.34746">
        <ele>1153.23877</ele>
        <time>2014-08-20T14:53:11Z</time>
      </trkpt>
      <trkpt lat="46.66201" lon="6.34746">
        <ele>1154.200195</ele>
        <time>2014-08-20T14:53:19Z</time>
      </trkpt>
      <trkpt lat="46.66198" lon="6.34747">
        <ele>1153.23877</ele>
        <time>2014-08-20T14:53:21Z</time>
      </trkpt>
      <trkpt lat="46.66183" lon="6.3475">
        <ele>1152.758057</ele>
        <time>2014-08-20T14:53:34Z</time>
      </trkpt>
      <trkpt lat="46.66158" lon="6.34761">
        <ele>1152.277344</ele>
        <time>2014-08-20T14:53:52Z</time>
      </trkpt>
      <trkpt lat="46.66148" lon="6.34764">
        <ele>1153.23877</ele>
        <time>2014-08-20T14:54:00Z</time>
      </trkpt>
      <trkpt lat="46.66133" lon="6.34766">
        <ele>1153.23877</ele>
        <time>2014-08-20T14:54:12Z</time>
      </trkpt>
      <trkpt lat="46.6612" lon="6.34767">
        <ele>1152.277344</ele>
        <time>2014-08-20T14:54:21Z</time>
      </trkpt>
      <trkpt lat="46.66106" lon="6.34769">
        <ele>1150.35498</ele>
        <time>2014-08-20T14:54:32Z</time>
      </trkpt>
      <trkpt lat="46.66105" lon="6.34769">
        <ele>1150.35498</ele>
        <time>2014-08-20T14:54:33Z</time>
      </trkpt>
      <trkpt lat="46.66088" lon="6.34773">
        <ele>1146.98999</ele>
        <time>2014-08-20T14:54:47Z</time>
      </trkpt>
      <trkpt lat="46.66074" lon="6.34776">
        <ele>1144.58667</ele>
        <time>2014-08-20T14:54:56Z</time>
      </trkpt>
      <trkpt lat="46.66069" lon="6.34774">
        <ele>1142.664307</ele>
        <time>2014-08-20T14:55:00Z</time>
      </trkpt>
      <trkpt lat="46.66054" lon="6.34774">
        <ele>1141.222168</ele>
        <time>2014-08-20T14:55:12Z</time>
      </trkpt>
      <trkpt lat="46.66028" lon="6.34771">
        <ele>1137.376953</ele>
        <time>2014-08-20T14:55:31Z</time>
      </trkpt>
      <trkpt lat="46.66027" lon="6.34771">
        <ele>1137.376953</ele>
        <time>2014-08-20T14:55:32Z</time>
      </trkpt>
      <trkpt lat="46.66012" lon="6.34768">
        <ele>1134.012451</ele>
        <time>2014-08-20T14:55:45Z</time>
      </trkpt>
      <trkpt lat="46.6601" lon="6.34768">
        <ele>1133.531738</ele>
        <time>2014-08-20T14:55:47Z</time>
      </trkpt>
      <trkpt lat="46.65994" lon="6.34766">
        <ele>1130.647705</ele>
        <time>2014-08-20T14:56:00Z</time>
      </trkpt>
      <trkpt lat="46.65982" lon="6.34761">
        <ele>1130.647705</ele>
        <time>2014-08-20T14:56:09Z</time>
      </trkpt>
      <trkpt lat="46.65965" lon="6.34766">
        <ele>1131.608887</ele>
        <time>2014-08-20T14:56:23Z</time>
      </trkpt>
      <trkpt lat="46.65958" lon="6.34771">
        <ele>1132.570557</ele>
        <time>2014-08-20T14:56:30Z</time>
      </trkpt>
      <trkpt lat="46.6595" lon="6.34771">
        <ele>1133.051025</ele>
        <time>2014-08-20T14:56:43Z</time>
      </trkpt>
      <trkpt lat="46.65954" lon="6.34763">
        <ele>1133.531738</ele>
        <time>2014-08-20T14:56:49Z</time>
      </trkpt>
      <trkpt lat="46.65962" lon="6.34753">
        <ele>1134.493164</ele>
        <time>2014-08-20T14:56:57Z</time>
      </trkpt>
      <trkpt lat="46.65973" lon="6.34748">
        <ele>1136.89624</ele>
        <time>2014-08-20T14:57:06Z</time>
      </trkpt>
      <trkpt lat="46.65986" lon="6.34742">
        <ele>1138.338379</ele>
        <time>2014-08-20T14:57:18Z</time>
      </trkpt>
      <trkpt lat="46.65993" lon="6.34737">
        <ele>1136.89624</ele>
        <time>2014-08-20T14:57:31Z</time>
      </trkpt>
      <trkpt lat="46.66009" lon="6.34729">
        <ele>1134.973877</ele>
        <time>2014-08-20T14:57:46Z</time>
      </trkpt>
      <trkpt lat="46.66028" lon="6.34717">
        <ele>1129.205566</ele>
        <time>2014-08-20T14:58:07Z</time>
      </trkpt>
      <trkpt lat="46.66029" lon="6.34717">
        <ele>1129.205566</ele>
        <time>2014-08-20T14:58:08Z</time>
      </trkpt>
      <trkpt lat="46.66037" lon="6.34706">
        <ele>1127.283203</ele>
        <time>2014-08-20T14:58:17Z</time>
      </trkpt>
      <trkpt lat="46.6604" lon="6.34701">
        <ele>1126.321777</ele>
        <time>2014-08-20T14:58:21Z</time>
      </trkpt>
      <trkpt lat="46.66039" lon="6.34692">
        <ele>1125.360352</ele>
        <time>2014-08-20T14:58:25Z</time>
      </trkpt>
      <trkpt lat="46.66049" lon="6.34656">
        <ele>1121.515137</ele>
        <time>2014-08-20T14:58:45Z</time>
      </trkpt>
      <trkpt lat="46.66062" lon="6.34632">
        <ele>1120.553955</ele>
        <time>2014-08-20T14:58:59Z</time>
      </trkpt>
      <trkpt lat="46.66066" lon="6.34615">
        <ele>1120.073242</ele>
        <time>2014-08-20T14:59:09Z</time>
      </trkpt>
      <trkpt lat="46.66074" lon="6.346">
        <ele>1118.150635</ele>
        <time>2014-08-20T14:59:19Z</time>
      </trkpt>
      <trkpt lat="46.66078" lon="6.34594">
        <ele>1117.669922</ele>
        <time>2014-08-20T14:59:24Z</time>
      </trkpt>
      <trkpt lat="46.66085" lon="6.34573">
        <ele>1115.266602</ele>
        <time>2014-08-20T14:59:38Z</time>
      </trkpt>
      <trkpt lat="46.66089" lon="6.34558">
        <ele>1112.863281</ele>
        <time>2014-08-20T14:59:51Z</time>
      </trkpt>
      <trkpt lat="46.66102" lon="6.34536">
        <ele>1110.459961</ele>
        <time>2014-08-20T15:00:08Z</time>
      </trkpt>
      <trkpt lat="46.66114" lon="6.34524">
        <ele>1109.979248</ele>
        <time>2014-08-20T15:00:15Z</time>
      </trkpt>
      <trkpt lat="46.66114" lon="6.34519">
        <ele>1109.979248</ele>
        <time>2014-08-20T15:00:17Z</time>
      </trkpt>
      <trkpt lat="46.66122" lon="6.34506">
        <ele>1111.421387</ele>
        <time>2014-08-20T15:00:26Z</time>
      </trkpt>
      <trkpt lat="46.66129" lon="6.34487">
        <ele>1112.382568</ele>
        <time>2014-08-20T15:00:38Z</time>
      </trkpt>
      <trkpt lat="46.66133" lon="6.34462">
        <ele>1111.9021</ele>
        <time>2014-08-20T15:00:51Z</time>
      </trkpt>
      <trkpt lat="46.66134" lon="6.34459">
        <ele>1111.9021</ele>
        <time>2014-08-20T15:00:53Z</time>
      </trkpt>
      <trkpt lat="46.6614" lon="6.34431">
        <ele>1111.9021</ele>
        <time>2014-08-20T15:01:09Z</time>
      </trkpt>
      <trkpt lat="46.66139" lon="6.34427">
        <ele>1111.9021</ele>
        <time>2014-08-20T15:01:11Z</time>
      </trkpt>
      <trkpt lat="46.66142" lon="6.34416">
        <ele>1111.421387</ele>
        <time>2014-08-20T15:01:18Z</time>
      </trkpt>
      <trkpt lat="46.66149" lon="6.34394">
        <ele>1112.863281</ele>
        <time>2014-08-20T15:01:31Z</time>
      </trkpt>
      <trkpt lat="46.66153" lon="6.34366">
        <ele>1113.343994</ele>
        <time>2014-08-20T15:01:46Z</time>
      </trkpt>
      <trkpt lat="46.6616" lon="6.34345">
        <ele>1113.343994</ele>
        <time>2014-08-20T15:01:59Z</time>
      </trkpt>
      <trkpt lat="46.66164" lon="6.34334">
        <ele>1112.863281</ele>
        <time>2014-08-20T15:02:09Z</time>
      </trkpt>
      <trkpt lat="46.66166" lon="6.34331">
        <ele>1112.863281</ele>
        <time>2014-08-20T15:02:10Z</time>
      </trkpt>
      <trkpt lat="46.66167" lon="6.34332">
        <ele>1111.421387</ele>
        <time>2014-08-20T15:02:12Z</time>
      </trkpt>
      <trkpt lat="46.66177" lon="6.34323">
        <ele>1108.537354</ele>
        <time>2014-08-20T15:02:22Z</time>
      </trkpt>
      <trkpt lat="46.66179" lon="6.3432">
        <ele>1108.056885</ele>
        <time>2014-08-20T15:02:24Z</time>
      </trkpt>
      <trkpt lat="46.66188" lon="6.3431">
        <ele>1101.80835</ele>
        <time>2014-08-20T15:02:37Z</time>
      </trkpt>
      <trkpt lat="46.66191" lon="6.34307">
        <ele>1100.846924</ele>
        <time>2014-08-20T15:02:39Z</time>
      </trkpt>
      <trkpt lat="46.66204" lon="6.343">
        <ele>1101.327637</ele>
        <time>2014-08-20T15:02:49Z</time>
      </trkpt>
      <trkpt lat="46.66221" lon="6.34286">
        <ele>1100.366455</ele>
        <time>2014-08-20T15:03:05Z</time>
      </trkpt>
      <trkpt lat="46.66238" lon="6.3427">
        <ele>1098.924072</ele>
        <time>2014-08-20T15:03:21Z</time>
      </trkpt>
      <trkpt lat="46.66253" lon="6.34255">
        <ele>1097.001465</ele>
        <time>2014-08-20T15:03:36Z</time>
      </trkpt>
      <trkpt lat="46.66255" lon="6.3425">
        <ele>1097.962891</ele>
        <time>2014-08-20T15:03:44Z</time>
      </trkpt>
      <trkpt lat="46.6626" lon="6.34244">
        <ele>1098.443359</ele>
        <time>2014-08-20T15:03:48Z</time>
      </trkpt>
      <trkpt lat="46.66275" lon="6.34251">
        <ele>1100.846924</ele>
        <time>2014-08-20T15:04:07Z</time>
      </trkpt>
      <trkpt lat="46.66289" lon="6.34256">
        <ele>1102.769531</ele>
        <time>2014-08-20T15:04:20Z</time>
      </trkpt>
      <trkpt lat="46.66312" lon="6.34265">
        <ele>1106.134033</ele>
        <time>2014-08-20T15:04:34Z</time>
      </trkpt>
      <trkpt lat="46.66328" lon="6.34259">
        <ele>1117.189453</ele>
        <time>2014-08-20T15:04:48Z</time>
      </trkpt>
      <trkpt lat="46.66343" lon="6.34253">
        <ele>1125.841064</ele>
        <time>2014-08-20T15:05:00Z</time>
      </trkpt>
      <trkpt lat="46.66365" lon="6.34271">
        <ele>1134.973877</ele>
        <time>2014-08-20T15:05:17Z</time>
      </trkpt>
      <trkpt lat="46.66384" lon="6.34261">
        <ele>1133.051025</ele>
        <time>2014-08-20T15:05:29Z</time>
      </trkpt>
      <trkpt lat="46.66385" lon="6.34261">
        <ele>1132.570557</ele>
        <time>2014-08-20T15:05:30Z</time>
      </trkpt>
      <trkpt lat="46.66402" lon="6.34261">
        <ele>1132.570557</ele>
        <time>2014-08-20T15:05:46Z</time>
      </trkpt>
      <trkpt lat="46.66413" lon="6.34264">
        <ele>1125.841064</ele>
        <time>2014-08-20T15:05:58Z</time>
      </trkpt>
      <trkpt lat="46.66436" lon="6.34267">
        <ele>1118.150635</ele>
        <time>2014-08-20T15:06:15Z</time>
      </trkpt>
      <trkpt lat="46.66459" lon="6.34273">
        <ele>1106.614746</ele>
        <time>2014-08-20T15:06:38Z</time>
      </trkpt>
      <trkpt lat="46.66472" lon="6.34275">
        <ele>1101.327637</ele>
        <time>2014-08-20T15:06:52Z</time>
      </trkpt>
      <trkpt lat="46.6649" lon="6.34279">
        <ele>1100.846924</ele>
        <time>2014-08-20T15:07:09Z</time>
      </trkpt>
      <trkpt lat="46.66509" lon="6.34281">
        <ele>1104.692139</ele>
        <time>2014-08-20T15:07:23Z</time>
      </trkpt>
      <trkpt lat="46.66528" lon="6.34281">
        <ele>1105.653564</ele>
        <time>2014-08-20T15:07:36Z</time>
      </trkpt>
      <trkpt lat="46.66566" lon="6.34275">
        <ele>1110.459961</ele>
        <time>2014-08-20T15:08:03Z</time>
      </trkpt>
      <trkpt lat="46.66583" lon="6.34269">
        <ele>1111.9021</ele>
        <time>2014-08-20T15:08:17Z</time>
      </trkpt>
      <trkpt lat="46.66592" lon="6.34267">
        <ele>1110.940674</ele>
        <time>2014-08-20T15:08:25Z</time>
      </trkpt>
      <trkpt lat="46.66605" lon="6.34264">
        <ele>1111.421387</ele>
        <time>2014-08-20T15:08:35Z</time>
      </trkpt>
      <trkpt lat="46.6662" lon="6.34269">
        <ele>1114.305176</ele>
        <time>2014-08-20T15:08:48Z</time>
      </trkpt>
      <trkpt lat="46.6663" lon="6.3427">
        <ele>1116.228027</ele>
        <time>2014-08-20T15:09:03Z</time>
      </trkpt>
      <trkpt lat="46.66632" lon="6.34268">
        <ele>1117.189453</ele>
        <time>2014-08-20T15:09:06Z</time>
      </trkpt>
      <trkpt lat="46.66661" lon="6.34258">
        <ele>1116.228027</ele>
        <time>2014-08-20T15:09:27Z</time>
      </trkpt>
      <trkpt lat="46.66663" lon="6.34258">
        <ele>1116.228027</ele>
        <time>2014-08-20T15:09:28Z</time>
      </trkpt>
      <trkpt lat="46.66672" lon="6.34252">
        <ele>1117.669922</ele>
        <time>2014-08-20T15:09:34Z</time>
      </trkpt>
      <trkpt lat="46.66696" lon="6.34242">
        <ele>1119.112061</ele>
        <time>2014-08-20T15:09:49Z</time>
      </trkpt>
      <trkpt lat="46.66707" lon="6.34234">
        <ele>1113.343994</ele>
        <time>2014-08-20T15:10:00Z</time>
      </trkpt>
      <trkpt lat="46.66714" lon="6.34227">
        <ele>1114.305176</ele>
        <time>2014-08-20T15:10:06Z</time>
      </trkpt>
      <trkpt lat="46.66713" lon="6.34204">
        <ele>1113.824463</ele>
        <time>2014-08-20T15:10:16Z</time>
      </trkpt>
      <trkpt lat="46.66713" lon="6.34188">
        <ele>1112.863281</ele>
        <time>2014-08-20T15:10:24Z</time>
      </trkpt>
      <trkpt lat="46.6671" lon="6.34175">
        <ele>1111.421387</ele>
        <time>2014-08-20T15:10:30Z</time>
      </trkpt>
      <trkpt lat="46.66711" lon="6.34163">
        <ele>1110.459961</ele>
        <time>2014-08-20T15:10:36Z</time>
      </trkpt>
      <trkpt lat="46.6671" lon="6.34159">
        <ele>1110.459961</ele>
        <time>2014-08-20T15:10:39Z</time>
      </trkpt>
      <trkpt lat="46.66704" lon="6.34147">
        <ele>1109.979248</ele>
        <time>2014-08-20T15:10:47Z</time>
      </trkpt>
      <trkpt lat="46.66705" lon="6.34134">
        <ele>1108.537354</ele>
        <time>2014-08-20T15:10:54Z</time>
      </trkpt>
      <trkpt lat="46.66703" lon="6.34129">
        <ele>1108.056885</ele>
        <time>2014-08-20T15:10:57Z</time>
      </trkpt>
      <trkpt lat="46.66698" lon="6.34113">
        <ele>1103.730957</ele>
        <time>2014-08-20T15:11:10Z</time>
      </trkpt>
      <trkpt lat="46.66692" lon="6.34099">
        <ele>1100.846924</ele>
        <time>2014-08-20T15:11:21Z</time>
      </trkpt>
      <trkpt lat="46.66677" lon="6.34075">
        <ele>1097.001465</ele>
        <time>2014-08-20T15:11:36Z</time>
      </trkpt>
      <trkpt lat="46.66673" lon="6.34059">
        <ele>1095.078857</ele>
        <time>2014-08-20T15:11:47Z</time>
      </trkpt>
      <trkpt lat="46.66665" lon="6.34041">
        <ele>1091.714355</ele>
        <time>2014-08-20T15:11:59Z</time>
      </trkpt>
      <trkpt lat="46.66662" lon="6.3403">
        <ele>1091.714355</ele>
        <time>2014-08-20T15:12:05Z</time>
      </trkpt>
      <trkpt lat="46.66652" lon="6.34003">
        <ele>1089.311035</ele>
        <time>2014-08-20T15:12:21Z</time>
      </trkpt>
      <trkpt lat="46.66649" lon="6.33994">
        <ele>1088.349854</ele>
        <time>2014-08-20T15:12:27Z</time>
      </trkpt>
      <trkpt lat="46.66641" lon="6.3397">
        <ele>1089.311035</ele>
        <time>2014-08-20T15:12:41Z</time>
      </trkpt>
      <trkpt lat="46.66641" lon="6.33966">
        <ele>1088.830566</ele>
        <time>2014-08-20T15:12:43Z</time>
      </trkpt>
      <trkpt lat="46.66638" lon="6.33948">
        <ele>1086.427246</ele>
        <time>2014-08-20T15:12:53Z</time>
      </trkpt>
      <trkpt lat="46.66635" lon="6.33926">
        <ele>1082.581787</ele>
        <time>2014-08-20T15:13:08Z</time>
      </trkpt>
      <trkpt lat="46.6663" lon="6.33903">
        <ele>1079.217041</ele>
        <time>2014-08-20T15:13:25Z</time>
      </trkpt>
      <trkpt lat="46.66636" lon="6.33897">
        <ele>1079.217041</ele>
        <time>2014-08-20T15:13:39Z</time>
      </trkpt>
      <trkpt lat="46.66645" lon="6.33873">
        <ele>1076.813965</ele>
        <time>2014-08-20T15:13:53Z</time>
      </trkpt>
      <trkpt lat="46.66647" lon="6.33869">
        <ele>1077.294678</ele>
        <time>2014-08-20T15:13:55Z</time>
      </trkpt>
      <trkpt lat="46.66647" lon="6.33866">
        <ele>1077.294678</ele>
        <time>2014-08-20T15:13:57Z</time>
      </trkpt>
      <trkpt lat="46.66649" lon="6.33844">
        <ele>1077.294678</ele>
        <time>2014-08-20T15:14:09Z</time>
      </trkpt>
      <trkpt lat="46.6665" lon="6.33826">
        <ele>1080.65918</ele>
        <time>2014-08-20T15:14:20Z</time>
      </trkpt>
      <trkpt lat="46.6665" lon="6.33804">
        <ele>1084.023926</ele>
        <time>2014-08-20T15:14:34Z</time>
      </trkpt>
      <trkpt lat="46.66653" lon="6.33774">
        <ele>1080.178467</ele>
        <time>2014-08-20T15:14:50Z</time>
      </trkpt>
      <trkpt lat="46.66649" lon="6.33764">
        <ele>1077.294678</ele>
        <time>2014-08-20T15:14:54Z</time>
      </trkpt>
      <trkpt lat="46.66649" lon="6.3376">
        <ele>1075.852539</ele>
        <time>2014-08-20T15:14:58Z</time>
      </trkpt>
      <trkpt lat="46.6665" lon="6.33754">
        <ele>1075.371826</ele>
        <time>2014-08-20T15:15:00Z</time>
      </trkpt>
      <trkpt lat="46.6665" lon="6.33728">
        <ele>1069.123535</ele>
        <time>2014-08-20T15:15:14Z</time>
      </trkpt>
      <trkpt lat="46.66655" lon="6.33701">
        <ele>1064.797363</ele>
        <time>2014-08-20T15:15:27Z</time>
      </trkpt>
      <trkpt lat="46.66659" lon="6.3369">
        <ele>1064.31665</ele>
        <time>2014-08-20T15:15:36Z</time>
      </trkpt>
      <trkpt lat="46.66658" lon="6.3367">
        <ele>1064.797363</ele>
        <time>2014-08-20T15:15:48Z</time>
      </trkpt>
      <trkpt lat="46.66642" lon="6.33657">
        <ele>1065.758789</ele>
        <time>2014-08-20T15:16:12Z</time>
      </trkpt>
      <trkpt lat="46.66634" lon="6.33655">
        <ele>1066.719971</ele>
        <time>2014-08-20T15:16:17Z</time>
      </trkpt>
      <trkpt lat="46.66621" lon="6.33651">
        <ele>1066.719971</ele>
        <time>2014-08-20T15:16:29Z</time>
      </trkpt>
      <trkpt lat="46.66615" lon="6.33647">
        <ele>1067.200684</ele>
        <time>2014-08-20T15:16:35Z</time>
      </trkpt>
      <trkpt lat="46.66608" lon="6.33647">
        <ele>1067.200684</ele>
        <time>2014-08-20T15:16:40Z</time>
      </trkpt>
      <trkpt lat="46.66606" lon="6.33645">
        <ele>1066.239258</ele>
        <time>2014-08-20T15:16:43Z</time>
      </trkpt>
      <trkpt lat="46.66599" lon="6.33641">
        <ele>1064.31665</ele>
        <time>2014-08-20T15:16:49Z</time>
      </trkpt>
      <trkpt lat="46.66586" lon="6.33635">
        <ele>1062.394043</ele>
        <time>2014-08-20T15:17:00Z</time>
      </trkpt>
      <trkpt lat="46.66585" lon="6.33634">
        <ele>1062.394043</ele>
        <time>2014-08-20T15:17:01Z</time>
      </trkpt>
      <trkpt lat="46.66582" lon="6.33631">
        <ele>1061.913574</ele>
        <time>2014-08-20T15:17:05Z</time>
      </trkpt>
      <trkpt lat="46.66581" lon="6.33629">
        <ele>1061.432861</ele>
        <time>2014-08-20T15:17:07Z</time>
      </trkpt>
      <trkpt lat="46.6656" lon="6.33621">
        <ele>1060.471436</ele>
        <time>2014-08-20T15:17:22Z</time>
      </trkpt>
      <trkpt lat="46.66556" lon="6.33618">
        <ele>1060.952148</ele>
        <time>2014-08-20T15:17:26Z</time>
      </trkpt>
      <trkpt lat="46.66549" lon="6.33609">
        <ele>1062.874756</ele>
        <time>2014-08-20T15:17:37Z</time>
      </trkpt>
      <trkpt lat="46.66543" lon="6.33594">
        <ele>1062.394043</ele>
        <time>2014-08-20T15:17:47Z</time>
      </trkpt>
      <trkpt lat="46.66541" lon="6.33592">
        <ele>1061.432861</ele>
        <time>2014-08-20T15:17:49Z</time>
      </trkpt>
      <trkpt lat="46.66539" lon="6.33579">
        <ele>1059.510254</ele>
        <time>2014-08-20T15:17:59Z</time>
      </trkpt>
      <trkpt lat="46.66539" lon="6.33572">
        <ele>1058.548828</ele>
        <time>2014-08-20T15:18:04Z</time>
      </trkpt>
      <trkpt lat="46.66527" lon="6.33565">
        <ele>1058.548828</ele>
        <time>2014-08-20T15:18:12Z</time>
      </trkpt>
      <trkpt lat="46.66519" lon="6.33566">
        <ele>1056.145508</ele>
        <time>2014-08-20T15:18:35Z</time>
      </trkpt>
      <trkpt lat="46.66527" lon="6.33561">
        <ele>1057.106934</ele>
        <time>2014-08-20T15:18:41Z</time>
      </trkpt>
      <trkpt lat="46.66533" lon="6.33554">
        <ele>1059.029541</ele>
        <time>2014-08-20T15:18:48Z</time>
      </trkpt>
      <trkpt lat="46.66537" lon="6.33544">
        <ele>1059.990723</ele>
        <time>2014-08-20T15:18:56Z</time>
      </trkpt>
      <trkpt lat="46.66541" lon="6.33523">
        <ele>1061.913574</ele>
        <time>2014-08-20T15:19:07Z</time>
      </trkpt>
      <trkpt lat="46.66539" lon="6.33499">
        <ele>1065.758789</ele>
        <time>2014-08-20T15:19:18Z</time>
      </trkpt>
      <trkpt lat="46.66539" lon="6.33475">
        <ele>1070.084717</ele>
        <time>2014-08-20T15:19:29Z</time>
      </trkpt>
      <trkpt lat="46.66545" lon="6.33455">
        <ele>1074.891357</ele>
        <time>2014-08-20T15:19:41Z</time>
      </trkpt>
      <trkpt lat="46.66546" lon="6.33452">
        <ele>1076.333252</ele>
        <time>2014-08-20T15:19:44Z</time>
      </trkpt>
      <trkpt lat="46.66557" lon="6.33424">
        <ele>1082.581787</ele>
        <time>2014-08-20T15:20:02Z</time>
      </trkpt>
      <trkpt lat="46.66583" lon="6.33399">
        <ele>1084.023926</ele>
        <time>2014-08-20T15:20:18Z</time>
      </trkpt>
      <trkpt lat="46.666" lon="6.33391">
        <ele>1081.139893</ele>
        <time>2014-08-20T15:20:36Z</time>
      </trkpt>
      <trkpt lat="46.66615" lon="6.33384">
        <ele>1072.96875</ele>
        <time>2014-08-20T15:20:54Z</time>
      </trkpt>
      <trkpt lat="46.66614" lon="6.33352">
        <ele>1067.681152</ele>
        <time>2014-08-20T15:21:11Z</time>
      </trkpt>
      <trkpt lat="46.66639" lon="6.33338">
        <ele>1063.355469</ele>
        <time>2014-08-20T15:21:27Z</time>
      </trkpt>
      <trkpt lat="46.66654" lon="6.33337">
        <ele>1059.510254</ele>
        <time>2014-08-20T15:21:41Z</time>
      </trkpt>
      <trkpt lat="46.66648" lon="6.33292">
        <ele>1056.626221</ele>
        <time>2014-08-20T15:22:25Z</time>
      </trkpt>
      <trkpt lat="46.66646" lon="6.33268">
        <ele>1057.587646</ele>
        <time>2014-08-20T15:22:38Z</time>
      </trkpt>
      <trkpt lat="46.66643" lon="6.33246">
        <ele>1059.029541</ele>
        <time>2014-08-20T15:22:55Z</time>
      </trkpt>
      <trkpt lat="46.66598" lon="6.3317">
        <ele>1063.355469</ele>
        <time>2014-08-20T15:24:04Z</time>
      </trkpt>
      <trkpt lat="46.66583" lon="6.33133">
        <ele>1059.990723</ele>
        <time>2014-08-20T15:24:35Z</time>
      </trkpt>
      <trkpt lat="46.66582" lon="6.33084">
        <ele>1059.029541</ele>
        <time>2014-08-20T15:25:06Z</time>
      </trkpt>
      <trkpt lat="46.66578" lon="6.33074">
        <ele>1053.261719</ele>
        <time>2014-08-20T15:25:09Z</time>
      </trkpt>
      <trkpt lat="46.66565" lon="6.33084">
        <ele>1055.184326</ele>
        <time>2014-08-20T15:25:23Z</time>
      </trkpt>
      <trkpt lat="46.66543" lon="6.33092">
        <ele>1059.990723</ele>
        <time>2014-08-20T15:25:38Z</time>
      </trkpt>
      <trkpt lat="46.6652" lon="6.33088">
        <ele>1061.913574</ele>
        <time>2014-08-20T15:25:58Z</time>
      </trkpt>
      <trkpt lat="46.66513" lon="6.3309">
        <ele>1055.184326</ele>
        <time>2014-08-20T15:26:19Z</time>
      </trkpt>
    </trkseg>
  </trk>
  <rte>
    <name><![CDATA[001 - 001]]></name>
      <rtept lat="46.49111" lon="6.06537">
        <ele>1098.1</ele>
        <name><![CDATA[001]]></name>
        <desc><![CDATA[14-AOU-14 23:08:11]]></desc>
        <cmt><![CDATA[14-AOU-14 23:08:11]]></cmt>
      </rtept>
    </rte>
  <rte>
    <name><![CDATA[Le Pon - Le P]]></name>
      <rtept lat="46.66718" lon="6.33087">
        <ele>1023.5</ele>
        <name><![CDATA[Le Pont]]></name>
      </rtept>
    </rte>
</gpx>